sensor_id;sensor_type;location;lat;lon;timestamp;pressure;altitude;pressure_sealevel;temperature;humidity
50356;BME280;36264;51.296;-0.602;2023-07-30T00:00:00;100724.34;;;18.93;81.31
50356;BME280;36264;51.296;-0.602;2023-07-30T00:02:25;100715.31;;;18.97;80.43
50356;BME280;36264;51.296;-0.602;2023-07-30T00:04:51;100708.88;;;19.01;81.35
50356;BME280;36264;51.296;-0.602;2023-07-30T00:07:16;100710.88;;;19.11;80.47
50356;BME280;36264;51.296;-0.602;2023-07-30T00:09:42;100719.44;;;19.14;80.20
50356;BME280;36264;51.296;-0.602;2023-07-30T00:12:08;100719.44;;;19.27;80.79
50356;BME280;36264;51.296;-0.602;2023-07-30T00:14:34;100724.91;;;19.24;80.43
50356;BME280;36264;51.296;-0.602;2023-07-30T00:17:00;100727.44;;;19.26;81.05
50356;BME280;36264;51.296;-0.602;2023-07-30T00:19:26;100726.78;;;19.22;81.69
50356;BME280;36264;51.296;-0.602;2023-07-30T00:21:51;100714.69;;;19.19;81.46
50356;BME280;36264;51.296;-0.602;2023-07-30T00:24:17;100716.25;;;19.22;80.77
50356;BME280;36264;51.296;-0.602;2023-07-30T00:26:42;100721.53;;;19.22;81.55
50356;BME280;36264;51.296;-0.602;2023-07-30T00:29:07;100724.81;;;19.26;80.71
50356;BME280;36264;51.296;-0.602;2023-07-30T00:31:33;100713.78;;;19.33;80.42
50356;BME280;36264;51.296;-0.602;2023-07-30T00:33:58;100717.75;;;19.39;80.13
50356;BME280;36264;51.296;-0.602;2023-07-30T00:36:23;100735.66;;;19.21;85.84
50356;BME280;36264;51.296;-0.602;2023-07-30T00:38:49;100733.03;;;19.21;84.31
50356;BME280;36264;51.296;-0.602;2023-07-30T00:41:14;100731.75;;;19.14;85.83
50356;BME280;36264;51.296;-0.602;2023-07-30T00:43:39;100720.78;;;19.20;83.34
50356;BME280;36264;51.296;-0.602;2023-07-30T00:46:05;100723.72;;;19.03;86.27
50356;BME280;36264;51.296;-0.602;2023-07-30T00:48:31;100723.63;;;19.04;85.34
50356;BME280;36264;51.296;-0.602;2023-07-30T00:50:56;100726.06;;;19.07;86.46
50356;BME280;36264;51.296;-0.602;2023-07-30T00:53:23;100721.72;;;19.19;86.09
50356;BME280;36264;51.296;-0.602;2023-07-30T00:55:51;100718.34;;;18.91;86.77
50356;BME280;36264;51.296;-0.602;2023-07-30T00:58:18;100721.81;;;19.05;86.32
50356;BME280;36264;51.296;-0.602;2023-07-30T01:00:44;100715.81;;;19.03;84.64
50356;BME280;36264;51.296;-0.602;2023-07-30T01:03:10;100729.16;;;18.87;85.58
50356;BME280;36264;51.296;-0.602;2023-07-30T01:05:35;100731.50;;;18.91;85.14
50356;BME280;36264;51.296;-0.602;2023-07-30T01:08:01;100716.53;;;18.92;84.67
50356;BME280;36264;51.296;-0.602;2023-07-30T01:10:27;100722.03;;;19.01;85.03
50356;BME280;36264;51.296;-0.602;2023-07-30T01:12:55;100726.66;;;18.98;84.36
50356;BME280;36264;51.296;-0.602;2023-07-30T01:15:21;100722.75;;;18.91;85.52
50356;BME280;36264;51.296;-0.602;2023-07-30T01:17:46;100727.81;;;18.94;84.08
50356;BME280;36264;51.296;-0.602;2023-07-30T01:20:12;100723.28;;;18.96;84.21
50356;BME280;36264;51.296;-0.602;2023-07-30T01:22:37;100733.41;;;18.89;84.97
50356;BME280;36264;51.296;-0.602;2023-07-30T01:25:03;100737.69;;;18.90;84.35
50356;BME280;36264;51.296;-0.602;2023-07-30T01:27:30;100735.34;;;19.13;82.66
50356;BME280;36264;51.296;-0.602;2023-07-30T01:30:08;100730.41;;;19.21;84.43
50356;BME280;36264;51.296;-0.602;2023-07-30T01:32:37;100730.59;;;19.05;83.50
50356;BME280;36264;51.296;-0.602;2023-07-30T01:35:07;100740.16;;;19.19;82.66
50356;BME280;36264;51.296;-0.602;2023-07-30T01:37:33;100739.19;;;18.94;83.70
50356;BME280;36264;51.296;-0.602;2023-07-30T01:39:59;100738.59;;;19.04;82.52
50356;BME280;36264;51.296;-0.602;2023-07-30T01:42:31;100745.50;;;18.92;85.54
50356;BME280;36264;51.296;-0.602;2023-07-30T01:44:56;100747.91;;;18.68;85.49
50356;BME280;36264;51.296;-0.602;2023-07-30T01:47:22;100761.16;;;18.66;85.79
50356;BME280;36264;51.296;-0.602;2023-07-30T01:49:47;100751.69;;;18.63;85.56
50356;BME280;36264;51.296;-0.602;2023-07-30T01:52:12;100749.50;;;18.70;84.10
50356;BME280;36264;51.296;-0.602;2023-07-30T01:54:38;100746.78;;;18.72;83.65
50356;BME280;36264;51.296;-0.602;2023-07-30T01:57:03;100748.91;;;18.79;84.04
50356;BME280;36264;51.296;-0.602;2023-07-30T01:59:29;100753.91;;;18.70;84.61
50356;BME280;36264;51.296;-0.602;2023-07-30T02:01:54;100753.63;;;18.74;84.84
50356;BME280;36264;51.296;-0.602;2023-07-30T02:04:19;100749.63;;;18.69;84.97
50356;BME280;36264;51.296;-0.602;2023-07-30T02:06:45;100749.56;;;18.56;87.61
50356;BME280;36264;51.296;-0.602;2023-07-30T02:09:10;100753.19;;;18.68;86.88
50356;BME280;36264;51.296;-0.602;2023-07-30T02:11:35;100754.38;;;18.76;84.85
50356;BME280;36264;51.296;-0.602;2023-07-30T02:14:01;100752.59;;;18.77;85.23
50356;BME280;36264;51.296;-0.602;2023-07-30T02:16:26;100751.47;;;18.67;85.97
50356;BME280;36264;51.296;-0.602;2023-07-30T02:18:51;100753.94;;;18.82;84.75
50356;BME280;36264;51.296;-0.602;2023-07-30T02:21:17;100755.91;;;18.93;83.88
50356;BME280;36264;51.296;-0.602;2023-07-30T02:23:42;100757.91;;;18.90;84.22
50356;BME280;36264;51.296;-0.602;2023-07-30T02:26:07;100751.41;;;18.81;84.92
50356;BME280;36264;51.296;-0.602;2023-07-30T02:28:33;100751.41;;;18.81;84.28
50356;BME280;36264;51.296;-0.602;2023-07-30T02:30:58;100763.28;;;18.88;84.18
50356;BME280;36264;51.296;-0.602;2023-07-30T02:33:23;100752.94;;;18.85;84.65
50356;BME280;36264;51.296;-0.602;2023-07-30T02:35:49;100763.50;;;18.71;86.00
50356;BME280;36264;51.296;-0.602;2023-07-30T02:38:14;100770.00;;;18.65;87.06
50356;BME280;36264;51.296;-0.602;2023-07-30T02:40:39;100766.03;;;18.72;85.59
50356;BME280;36264;51.296;-0.602;2023-07-30T02:43:05;100761.16;;;18.66;86.78
50356;BME280;36264;51.296;-0.602;2023-07-30T02:45:30;100774.47;;;18.50;87.75
50356;BME280;36264;51.296;-0.602;2023-07-30T02:47:55;100776.56;;;18.45;88.45
50356;BME280;36264;51.296;-0.602;2023-07-30T02:50:21;100762.06;;;18.52;87.86
50356;BME280;36264;51.296;-0.602;2023-07-30T02:52:46;100758.09;;;18.59;86.50
50356;BME280;36264;51.296;-0.602;2023-07-30T02:55:11;100753.06;;;18.69;85.62
50356;BME280;36264;51.296;-0.602;2023-07-30T02:57:37;100751.84;;;18.75;85.04
50356;BME280;36264;51.296;-0.602;2023-07-30T03:00:03;100757.84;;;18.77;84.68
50356;BME280;36264;51.296;-0.602;2023-07-30T03:02:29;100750.88;;;18.76;83.85
50356;BME280;36264;51.296;-0.602;2023-07-30T03:04:55;100750.69;;;18.52;84.05
50356;BME280;36264;51.296;-0.602;2023-07-30T03:07:20;100746.75;;;18.59;83.50
50356;BME280;36264;51.296;-0.602;2023-07-30T03:09:46;100763.25;;;18.61;83.20
50356;BME280;36264;51.296;-0.602;2023-07-30T03:12:11;100763.84;;;18.52;83.35
50356;BME280;36264;51.296;-0.602;2023-07-30T03:14:37;100766.38;;;18.53;82.79
50356;BME280;36264;51.296;-0.602;2023-07-30T03:17:02;100766.56;;;18.50;82.85
50356;BME280;36264;51.296;-0.602;2023-07-30T03:19:27;100757.09;;;18.47;82.15
50356;BME280;36264;51.296;-0.602;2023-07-30T03:21:53;100758.97;;;18.45;82.94
50356;BME280;36264;51.296;-0.602;2023-07-30T03:24:18;100770.31;;;18.04;86.75
50356;BME280;36264;51.296;-0.602;2023-07-30T03:26:43;100770.97;;;18.08;86.23
50356;BME280;36264;51.296;-0.602;2023-07-30T03:29:09;100769.94;;;18.10;86.66
50356;BME280;36264;51.296;-0.602;2023-07-30T03:31:35;100768.84;;;18.00;86.88
50356;BME280;36264;51.296;-0.602;2023-07-30T03:34:00;100771.03;;;17.78;89.31
50356;BME280;36264;51.296;-0.602;2023-07-30T03:36:25;100769.00;;;17.83;89.29
50356;BME280;36264;51.296;-0.602;2023-07-30T03:38:50;100773.47;;;17.81;88.68
50356;BME280;36264;51.296;-0.602;2023-07-30T03:41:16;100782.03;;;17.84;89.04
50356;BME280;36264;51.296;-0.602;2023-07-30T03:43:41;100781.09;;;17.85;88.15
50356;BME280;36264;51.296;-0.602;2023-07-30T03:46:06;100777.34;;;17.75;89.23
50356;BME280;36264;51.296;-0.602;2023-07-30T03:48:32;100777.34;;;17.75;89.93
50356;BME280;36264;51.296;-0.602;2023-07-30T03:50:57;100785.59;;;17.69;92.27
50356;BME280;36264;51.296;-0.602;2023-07-30T03:53:23;100782.50;;;17.62;92.17
50356;BME280;36264;51.296;-0.602;2023-07-30T03:55:48;100782.22;;;17.67;90.89
50356;BME280;36264;51.296;-0.602;2023-07-30T03:58:16;100780.91;;;17.74;92.71
50356;BME280;36264;51.296;-0.602;2023-07-30T04:00:42;100779.97;;;17.61;94.19
50356;BME280;36264;51.296;-0.602;2023-07-30T04:03:07;100781.44;;;17.65;91.89
50356;BME280;36264;51.296;-0.602;2023-07-30T04:05:32;100784.94;;;17.65;92.19
50356;BME280;36264;51.296;-0.602;2023-07-30T04:07:58;100780.06;;;17.59;92.82
50356;BME280;36264;51.296;-0.602;2023-07-30T04:10:23;100781.63;;;17.62;92.11
50356;BME280;36264;51.296;-0.602;2023-07-30T04:12:49;100774.19;;;17.54;93.49
50356;BME280;36264;51.296;-0.602;2023-07-30T04:15:15;100785.31;;;17.73;92.08
50356;BME280;36264;51.296;-0.602;2023-07-30T04:17:40;100790.28;;;17.64;93.13
50356;BME280;36264;51.296;-0.602;2023-07-30T04:20:06;100791.59;;;17.71;93.99
50356;BME280;36264;51.296;-0.602;2023-07-30T04:22:32;100789.31;;;17.65;95.76
50356;BME280;36264;51.296;-0.602;2023-07-30T04:24:57;100796.63;;;17.60;95.81
50356;BME280;36264;51.296;-0.602;2023-07-30T04:27:23;100797.38;;;17.62;95.79
50356;BME280;36264;51.296;-0.602;2023-07-30T04:29:48;100795.34;;;17.67;96.47
50356;BME280;36264;51.296;-0.602;2023-07-30T04:32:14;100791.50;;;17.72;95.01
50356;BME280;36264;51.296;-0.602;2023-07-30T04:34:39;100799.19;;;17.75;94.88
50356;BME280;36264;51.296;-0.602;2023-07-30T04:37:05;100798.72;;;17.69;96.71
50356;BME280;36264;51.296;-0.602;2023-07-30T04:39:34;100803.25;;;17.81;97.45
50356;BME280;36264;51.296;-0.602;2023-07-30T04:42:00;100817.28;;;17.66;97.64
50356;BME280;36264;51.296;-0.602;2023-07-30T04:44:25;100818.69;;;17.71;95.88
50356;BME280;36264;51.296;-0.602;2023-07-30T04:46:50;100812.97;;;17.65;96.96
50356;BME280;36264;51.296;-0.602;2023-07-30T04:49:16;100814.84;;;17.77;96.08
50356;BME280;36264;51.296;-0.602;2023-07-30T04:51:42;100817.28;;;17.66;97.62
50356;BME280;36264;51.296;-0.602;2023-07-30T04:54:07;100811.84;;;17.69;96.29
50356;BME280;36264;51.296;-0.602;2023-07-30T04:56:32;100819.53;;;17.58;99.12
50356;BME280;36264;51.296;-0.602;2023-07-30T04:58:58;100824.88;;;17.56;97.61
50356;BME280;36264;51.296;-0.602;2023-07-30T05:01:26;100818.41;;;17.76;97.21
50356;BME280;36264;51.296;-0.602;2023-07-30T05:03:52;100824.78;;;17.58;97.63
50356;BME280;36264;51.296;-0.602;2023-07-30T05:06:17;100814.00;;;17.62;96.23
50356;BME280;36264;51.296;-0.602;2023-07-30T05:08:42;100808.94;;;17.59;95.92
50356;BME280;36264;51.296;-0.602;2023-07-30T05:11:07;100830.00;;;17.43;100.00
50356;BME280;36264;51.296;-0.602;2023-07-30T05:13:33;100836.38;;;17.53;98.20
50356;BME280;36264;51.296;-0.602;2023-07-30T05:15:58;100833.75;;;17.53;97.82
50356;BME280;36264;51.296;-0.602;2023-07-30T05:18:24;100841.47;;;17.56;98.33
50356;BME280;36264;51.296;-0.602;2023-07-30T05:20:49;100838.09;;;17.54;100.00
50356;BME280;36264;51.296;-0.602;2023-07-30T05:23:15;100839.22;;;17.65;97.89
50356;BME280;36264;51.296;-0.602;2023-07-30T05:25:40;100833.03;;;17.66;96.80
50356;BME280;36264;51.296;-0.602;2023-07-30T05:28:05;100828.34;;;17.71;95.22
50356;BME280;36264;51.296;-0.602;2023-07-30T05:30:31;100845.97;;;17.54;99.36
50356;BME280;36264;51.296;-0.602;2023-07-30T05:32:56;100844.28;;;17.53;99.13
50356;BME280;36264;51.296;-0.602;2023-07-30T05:35:22;100844.16;;;17.41;100.00
50356;BME280;36264;51.296;-0.602;2023-07-30T05:37:47;100845.97;;;17.54;99.33
50356;BME280;36264;51.296;-0.602;2023-07-30T05:40:12;100847.81;;;17.52;100.00
50356;BME280;36264;51.296;-0.602;2023-07-30T05:42:38;100848.34;;;17.59;99.94
50356;BME280;36264;51.296;-0.602;2023-07-30T05:45:04;100843.00;;;17.75;98.43
50356;BME280;36264;51.296;-0.602;2023-07-30T05:47:29;100846.94;;;17.82;98.19
50356;BME280;36264;51.296;-0.602;2023-07-30T05:49:54;100858.00;;;17.87;98.32
50356;BME280;36264;51.296;-0.602;2023-07-30T05:52:20;100853.66;;;18.02;96.98
50356;BME280;36264;51.296;-0.602;2023-07-30T05:54:45;100854.41;;;18.04;96.82
50356;BME280;36264;51.296;-0.602;2023-07-30T05:57:10;100857.50;;;18.11;96.67
50356;BME280;36264;51.296;-0.602;2023-07-30T05:59:36;100864.56;;;17.96;98.38
50356;BME280;36264;51.296;-0.602;2023-07-30T06:02:02;100844.75;;;18.19;97.67
50356;BME280;36264;51.296;-0.602;2023-07-30T06:04:29;100853.69;;;18.17;97.17
50356;BME280;36264;51.296;-0.602;2023-07-30T06:06:54;100861.09;;;18.24;96.17
50356;BME280;36264;51.296;-0.602;2023-07-30T06:09:20;100860.25;;;18.24;97.45
50356;BME280;36264;51.296;-0.602;2023-07-30T06:11:45;100857.31;;;18.28;97.46
50356;BME280;36264;51.296;-0.602;2023-07-30T06:14:10;100863.16;;;18.34;97.03
50356;BME280;36264;51.296;-0.602;2023-07-30T06:16:36;100861.19;;;18.37;96.51
50356;BME280;36264;51.296;-0.602;2023-07-30T06:19:01;100867.09;;;18.26;97.13
50356;BME280;36264;51.296;-0.602;2023-07-30T06:21:26;100865.78;;;18.34;96.38
50356;BME280;36264;51.296;-0.602;2023-07-30T06:23:52;100869.34;;;18.18;97.74
50356;BME280;36264;51.296;-0.602;2023-07-30T06:26:17;100876.41;;;18.18;97.60
50356;BME280;36264;51.296;-0.602;2023-07-30T06:28:42;100883.88;;;18.09;97.92
50356;BME280;36264;51.296;-0.602;2023-07-30T06:31:08;100879.59;;;18.23;96.69
50356;BME280;36264;51.296;-0.602;2023-07-30T06:33:33;100877.59;;;18.26;97.23
50356;BME280;36264;51.296;-0.602;2023-07-30T06:35:59;100874.44;;;18.21;97.79
50356;BME280;36264;51.296;-0.602;2023-07-30T06:38:24;100876.22;;;18.21;97.67
50356;BME280;36264;51.296;-0.602;2023-07-30T06:40:49;100874.59;;;18.33;97.41
50356;BME280;36264;51.296;-0.602;2023-07-30T06:43:15;100884.75;;;18.53;95.79
50356;BME280;36264;51.296;-0.602;2023-07-30T06:45:40;100885.97;;;18.33;97.91
50356;BME280;36264;51.296;-0.602;2023-07-30T06:48:05;100899.69;;;18.38;97.23
50356;BME280;36264;51.296;-0.602;2023-07-30T06:50:31;100887.28;;;18.55;95.49
50356;BME280;36264;51.296;-0.602;2023-07-30T06:52:56;100890.34;;;18.61;95.68
50356;BME280;36264;51.296;-0.602;2023-07-30T06:55:21;100884.25;;;18.75;94.50
50356;BME280;36264;51.296;-0.602;2023-07-30T06:57:47;100882.53;;;18.89;93.91
50356;BME280;36264;51.296;-0.602;2023-07-30T07:00:12;100884.03;;;18.93;94.33
50356;BME280;36264;51.296;-0.602;2023-07-30T07:02:38;100884.69;;;18.96;93.72
50356;BME280;36264;51.296;-0.602;2023-07-30T07:05:04;100886.09;;;19.02;92.49
50356;BME280;36264;51.296;-0.602;2023-07-30T07:07:30;100886.13;;;19.15;92.15
50356;BME280;36264;51.296;-0.602;2023-07-30T07:09:55;100878.03;;;19.18;90.34
50356;BME280;36264;51.296;-0.602;2023-07-30T07:12:21;100885.94;;;19.18;91.79
50356;BME280;36264;51.296;-0.602;2023-07-30T07:14:46;100873.13;;;18.99;89.57
50356;BME280;36264;51.296;-0.602;2023-07-30T07:17:11;100882.88;;;19.11;88.41
50356;BME280;36264;51.296;-0.602;2023-07-30T07:19:37;100880.59;;;19.32;87.90
50356;BME280;36264;51.296;-0.602;2023-07-30T07:22:05;100866.22;;;19.51;87.41
50356;BME280;36264;51.296;-0.602;2023-07-30T07:24:31;100874.06;;;19.38;85.72
50356;BME280;36264;51.296;-0.602;2023-07-30T07:26:57;100874.84;;;19.40;84.80
50356;BME280;36264;51.296;-0.602;2023-07-30T07:29:22;100866.63;;;19.45;83.15
50356;BME280;36264;51.296;-0.602;2023-07-30T07:31:47;100881.22;;;19.23;81.76
50356;BME280;36264;51.296;-0.602;2023-07-30T07:34:13;100873.97;;;19.40;81.90
50356;BME280;36264;51.296;-0.602;2023-07-30T07:36:39;100868.41;;;19.44;81.97
50356;BME280;36264;51.296;-0.602;2023-07-30T07:39:05;100865.78;;;19.57;81.74
50356;BME280;36264;51.296;-0.602;2023-07-30T07:41:30;100869.84;;;19.76;81.62
50356;BME280;36264;51.296;-0.602;2023-07-30T07:43:55;100886.97;;;19.83;82.55
50356;BME280;36264;51.296;-0.602;2023-07-30T07:46:21;100880.31;;;19.90;79.78
50356;BME280;36264;51.296;-0.602;2023-07-30T07:48:46;100882.31;;;19.86;78.78
50356;BME280;36264;51.296;-0.602;2023-07-30T07:51:12;100900.03;;;19.84;77.56
50356;BME280;36264;51.296;-0.602;2023-07-30T07:53:38;100880.09;;;19.93;76.71
50356;BME280;36264;51.296;-0.602;2023-07-30T07:56:03;100891.41;;;20.08;76.13
50356;BME280;36264;51.296;-0.602;2023-07-30T07:58:30;100897.41;;;19.97;72.88
50356;BME280;36264;51.296;-0.602;2023-07-30T08:00:56;100898.97;;;20.00;75.33
50356;BME280;36264;51.296;-0.602;2023-07-30T08:03:23;100886.25;;;20.06;74.45
50356;BME280;36264;51.296;-0.602;2023-07-30T08:05:49;100901.59;;;20.13;75.33
50356;BME280;36264;51.296;-0.602;2023-07-30T08:08:14;100897.09;;;20.15;75.93
50356;BME280;36264;51.296;-0.602;2023-07-30T08:10:41;100918.72;;;20.20;76.08
50356;BME280;36264;51.296;-0.602;2023-07-30T08:13:11;100895.81;;;19.95;75.25
50356;BME280;36264;51.296;-0.602;2023-07-30T08:15:37;100900.44;;;19.78;75.56
50356;BME280;36264;51.296;-0.602;2023-07-30T08:18:02;100905.63;;;19.93;75.80
50356;BME280;36264;51.296;-0.602;2023-07-30T08:20:28;100900.13;;;19.83;75.17
50356;BME280;36264;51.296;-0.602;2023-07-30T08:22:53;100906.66;;;19.90;75.98
50356;BME280;36264;51.296;-0.602;2023-07-30T08:25:18;100915.88;;;19.97;76.97
50356;BME280;36264;51.296;-0.602;2023-07-30T08:27:44;100901.75;;;20.11;76.31
50356;BME280;36264;51.296;-0.602;2023-07-30T08:30:09;100903.31;;;20.14;75.29
50356;BME280;36264;51.296;-0.602;2023-07-30T08:32:35;100911.97;;;20.29;74.80
50356;BME280;36264;51.296;-0.602;2023-07-30T08:35:01;100921.03;;;20.37;74.43
50356;BME280;36264;51.296;-0.602;2023-07-30T08:37:26;100916.78;;;20.60;73.58
50356;BME280;36264;51.296;-0.602;2023-07-30T08:39:52;100917.19;;;20.80;73.96
50356;BME280;36264;51.296;-0.602;2023-07-30T08:42:17;100923.28;;;20.80;73.06
50356;BME280;36264;51.296;-0.602;2023-07-30T08:44:43;100914.88;;;20.62;71.94
50356;BME280;36264;51.296;-0.602;2023-07-30T08:47:09;100916.34;;;20.54;72.50
50356;BME280;36264;51.296;-0.602;2023-07-30T08:49:34;100902.53;;;20.50;72.57
50356;BME280;36264;51.296;-0.602;2023-07-30T08:52:02;100889.03;;;20.68;72.61
50356;BME280;36264;51.296;-0.602;2023-07-30T08:54:29;100899.59;;;20.92;73.39
50356;BME280;36264;51.296;-0.602;2023-07-30T08:56:55;100897.88;;;20.79;71.32
50356;BME280;36264;51.296;-0.602;2023-07-30T08:59:21;100878.69;;;21.02;71.97
50356;BME280;36264;51.296;-0.602;2023-07-30T09:01:50;100888.44;;;21.12;70.87
50356;BME280;36264;51.296;-0.602;2023-07-30T09:04:17;100884.69;;;21.04;69.16
50356;BME280;36264;51.296;-0.602;2023-07-30T09:06:43;100887.22;;;21.05;69.88
50356;BME280;36264;51.296;-0.602;2023-07-30T09:09:13;100895.25;;;21.28;69.33
50356;BME280;36264;51.296;-0.602;2023-07-30T09:11:38;100891.81;;;21.14;69.60
50356;BME280;36264;51.296;-0.602;2023-07-30T09:14:05;100872.63;;;21.48;69.78
50356;BME280;36264;51.296;-0.602;2023-07-30T09:16:31;100879.69;;;21.47;69.17
50356;BME280;36264;51.296;-0.602;2023-07-30T09:18:56;100884.25;;;21.45;69.67
50356;BME280;36264;51.296;-0.602;2023-07-30T09:21:30;100876.47;;;21.79;70.68
50356;BME280;36264;51.296;-0.602;2023-07-30T09:23:56;100886.56;;;21.85;70.94
50356;BME280;36264;51.296;-0.602;2023-07-30T09:26:23;100888.75;;;22.03;68.82
50356;BME280;36264;51.296;-0.602;2023-07-30T09:28:48;100888.53;;;22.17;67.88
50356;BME280;36264;51.296;-0.602;2023-07-30T09:31:14;100887.47;;;22.31;68.24
50356;BME280;36264;51.296;-0.602;2023-07-30T09:33:42;100898.53;;;22.70;67.42
50356;BME280;36264;51.296;-0.602;2023-07-30T09:36:08;100910.56;;;22.40;67.21
50356;BME280;36264;51.296;-0.602;2023-07-30T09:38:39;100890.47;;;22.60;66.53
50356;BME280;36264;51.296;-0.602;2023-07-30T09:41:05;100892.53;;;22.46;67.98
50356;BME280;36264;51.296;-0.602;2023-07-30T09:43:33;100892.09;;;22.95;68.53
50356;BME280;36264;51.296;-0.602;2023-07-30T09:46:03;100888.22;;;23.11;67.34
50356;BME280;36264;51.296;-0.602;2023-07-30T09:48:29;100887.50;;;23.09;66.66
50356;BME280;36264;51.296;-0.602;2023-07-30T09:50:57;100898.06;;;23.20;66.29
50356;BME280;36264;51.296;-0.602;2023-07-30T09:53:24;100891.19;;;23.50;66.67
50356;BME280;36264;51.296;-0.602;2023-07-30T09:55:49;100896.56;;;23.60;65.99
50356;BME280;36264;51.296;-0.602;2023-07-30T09:58:15;100888.28;;;23.53;65.56
50356;BME280;36264;51.296;-0.602;2023-07-30T10:00:41;100891.00;;;23.42;65.21
50356;BME280;36264;51.296;-0.602;2023-07-30T10:03:08;100908.63;;;23.85;66.36
50356;BME280;36264;51.296;-0.602;2023-07-30T10:05:36;100893.56;;;23.85;66.00
50356;BME280;36264;51.296;-0.602;2023-07-30T10:08:06;100891.63;;;23.87;66.45
50356;BME280;36264;51.296;-0.602;2023-07-30T10:10:34;100914.03;;;23.62;64.49
50356;BME280;36264;51.296;-0.602;2023-07-30T10:13:05;100912.56;;;23.69;65.73
50356;BME280;36264;51.296;-0.602;2023-07-30T10:15:35;100906.19;;;23.82;65.45
50356;BME280;36264;51.296;-0.602;2023-07-30T10:18:02;100903.41;;;23.41;66.03
50356;BME280;36264;51.296;-0.602;2023-07-30T10:20:28;100903.72;;;23.15;67.03
50356;BME280;36264;51.296;-0.602;2023-07-30T10:23:00;100907.59;;;23.44;67.46
50356;BME280;36264;51.296;-0.602;2023-07-30T10:27:53;100918.78;;;23.15;68.02
50356;BME280;36264;51.296;-0.602;2023-07-30T10:30:20;100920.56;;;23.26;69.32
50356;BME280;36264;51.296;-0.602;2023-07-30T10:38:28;100910.72;;;23.49;69.52
50356;BME280;36264;51.296;-0.602;2023-07-30T10:41:07;100916.84;;;23.49;70.13
50356;BME280;36264;51.296;-0.602;2023-07-30T10:43:39;100923.19;;;23.58;70.89
50356;BME280;36264;51.296;-0.602;2023-07-30T10:46:05;100922.03;;;23.51;71.29
50356;BME280;36264;51.296;-0.602;2023-07-30T10:48:41;100926.44;;;23.83;71.84
50356;BME280;36264;51.296;-0.602;2023-07-30T10:51:08;100920.91;;;24.07;71.89
50356;BME280;36264;51.296;-0.602;2023-07-30T10:53:34;100928.75;;;24.39;72.33
50356;BME280;36264;51.296;-0.602;2023-07-30T10:56:03;100922.72;;;24.58;71.47
50356;BME280;36264;51.296;-0.602;2023-07-30T10:58:33;100922.31;;;24.42;71.38
50356;BME280;36264;51.296;-0.602;2023-07-30T11:01:01;100920.31;;;24.03;73.17
50356;BME280;36264;51.296;-0.602;2023-07-30T11:03:27;100931.06;;;23.81;74.88
50356;BME280;36264;51.296;-0.602;2023-07-30T11:05:53;100926.19;;;23.65;75.93
50356;BME280;36264;51.296;-0.602;2023-07-30T11:08:18;100930.63;;;23.64;75.62
50356;BME280;36264;51.296;-0.602;2023-07-30T11:10:47;100928.63;;;23.89;76.48
50356;BME280;36264;51.296;-0.602;2023-07-30T11:13:15;100929.63;;;23.77;76.46
50356;BME280;36264;51.296;-0.602;2023-07-30T11:15:44;100931.75;;;23.62;77.84
50356;BME280;36264;51.296;-0.602;2023-07-30T11:18:11;100941.56;;;23.18;78.81
50356;BME280;36264;51.296;-0.602;2023-07-30T11:20:37;100947.38;;;22.89;80.53
50356;BME280;36264;51.296;-0.602;2023-07-30T11:23:25;100943.88;;;22.77;83.34
50356;BME280;36264;51.296;-0.602;2023-07-30T11:25:51;100953.38;;;22.46;83.97
50356;BME280;36264;51.296;-0.602;2023-07-30T11:28:31;100952.19;;;22.61;85.36
50356;BME280;36264;51.296;-0.602;2023-07-30T11:31:08;100943.84;;;23.00;84.18
50356;BME280;36264;51.296;-0.602;2023-07-30T11:33:44;100943.28;;;22.85;85.14
50356;BME280;36264;51.296;-0.602;2023-07-30T11:36:12;100948.94;;;22.80;85.33
50356;BME280;36264;51.296;-0.602;2023-07-30T11:38:39;100936.66;;;22.56;86.17
50356;BME280;36264;51.296;-0.602;2023-07-30T11:41:06;100944.72;;;22.77;86.13
50356;BME280;36264;51.296;-0.602;2023-07-30T11:43:36;100937.16;;;22.50;87.84
50356;BME280;36264;51.296;-0.602;2023-07-30T11:46:18;100941.94;;;22.79;88.58
50356;BME280;36264;51.296;-0.602;2023-07-30T11:48:47;100928.47;;;22.71;87.85
50356;BME280;36264;51.296;-0.602;2023-07-30T11:51:22;100933.16;;;22.78;90.12
50356;BME280;36264;51.296;-0.602;2023-07-30T11:53:53;100936.88;;;22.76;88.67
50356;BME280;36264;51.296;-0.602;2023-07-30T11:56:22;100928.50;;;22.59;90.65
50356;BME280;36264;51.296;-0.602;2023-07-30T11:58:48;100929.22;;;22.39;91.50
50356;BME280;36264;51.296;-0.602;2023-07-30T12:01:15;100941.38;;;22.30;92.54
50356;BME280;36264;51.296;-0.602;2023-07-30T12:03:41;100933.88;;;22.24;92.00
50356;BME280;36264;51.296;-0.602;2023-07-30T12:06:07;100931.38;;;22.34;90.71
50356;BME280;36264;51.296;-0.602;2023-07-30T12:08:34;100939.16;;;22.24;94.83
50356;BME280;36264;51.296;-0.602;2023-07-30T12:11:03;100937.22;;;22.15;96.29
50356;BME280;36264;51.296;-0.602;2023-07-30T12:13:28;100939.72;;;21.94;96.74
50356;BME280;36264;51.296;-0.602;2023-07-30T12:15:54;100935.03;;;21.97;95.44
50356;BME280;36264;51.296;-0.602;2023-07-30T12:18:21;100930.94;;;22.04;95.94
50356;BME280;36264;51.296;-0.602;2023-07-30T12:20:47;100915.31;;;22.01;96.68
50356;BME280;36264;51.296;-0.602;2023-07-30T12:23:13;100928.06;;;22.07;97.79
50356;BME280;36264;51.296;-0.602;2023-07-30T12:25:38;100926.66;;;22.26;94.25
50356;BME280;36264;51.296;-0.602;2023-07-30T12:28:04;100914.56;;;22.46;95.23
50356;BME280;36264;51.296;-0.602;2023-07-30T12:30:30;100915.25;;;22.59;97.37
50356;BME280;36264;51.296;-0.602;2023-07-30T12:32:56;100916.09;;;22.71;96.46
50356;BME280;36264;51.296;-0.602;2023-07-30T12:35:21;100916.78;;;22.85;95.84
50356;BME280;36264;51.296;-0.602;2023-07-30T12:37:47;100915.59;;;22.89;95.98
50356;BME280;36264;51.296;-0.602;2023-07-30T12:40:12;100904.13;;;23.11;96.42
50356;BME280;36264;51.296;-0.602;2023-07-30T12:42:37;100911.34;;;23.09;95.67